Time,TemperatureF,DewpointF,PressureIn,WindDirection,WindDirectionDegrees,WindSpeedMPH,WindSpeedGustMPH,Humidity,HourlyPrecipIn,Conditions,Clouds,dailyrainin,SoftwareType,DateUTC
2013-09-06 00:01:00,48.2,39.6,29.39,NNE,22,0.0,0.0,72,0.00,CLR,,0.00,WeatherDisplay:10.37,2013-09-05 23:01:00,
2013-09-06 00:06:00,48.0,39.4,29.39,NNE,22,0.0,0.0,72,0.00,CLR,,0.00,WeatherDisplay:10.37,2013-09-05 23:06:00,
2013-09-06 00:11:00,48.0,39.4,29.38,NNE,22,2.3,2.3,72,0.00,CLR,,0.00,WeatherDisplay:10.37,2013-09-05 23:11:00,
2013-09-06 00:16:00,48.0,39.4,29.38,NNE,22,0.0,0.0,72,0.00,CLR,,0.00,WeatherDisplay:10.37,2013-09-05 23:16:00,
2013-09-06 00:21:00,47.8,39.2,29.38,East,90,0.0,0.0,72,0.00,CLR,,0.00,WeatherDisplay:10.37,2013-09-05 23:21:00,
2013-09-06 00:26:00,47.5,38.9,29.38,East,90,0.0,0.0,72,0.00,CLR,,0.00,WeatherDisplay:10.37,2013-09-05 23:26:00,
2013-09-06 00:31:00,47.5,38.9,29.38,East,90,0.0,0.0,72,0.00,CLR,,0.00,WeatherDisplay:10.37,2013-09-05 23:31:00,
2013-09-06 00:36:00,47.5,38.9,29.38,East,90,0.0,0.0,72,0.00,CLR,,0.00,WeatherDisplay:10.37,2013-09-05 23:36:00,
2013-09-06 00:41:00,47.5,38.9,29.39,East,90,0.0,0.0,72,0.00,CLR,,0.00,WeatherDisplay:10.37,2013-09-05 23:41:00,
2013-09-06 00:46:00,47.5,38.9,29.38,East,90,0.0,0.0,72,0.00,CLR,,0.00,WeatherDisplay:10.37,2013-09-05 23:46:00,
2013-09-06 00:51:00,47.5,39.3,29.38,East,90,0.0,0.0,73,0.00,CLR,,0.00,WeatherDisplay:10.37,2013-09-05 23:51:00,
2013-09-06 00:56:00,47.3,39.1,29.38,NNE,22,0.0,0.0,73,0.00,CLR,,0.00,WeatherDisplay:10.37,2013-09-05 23:56:00,
2013-09-06 01:01:00,47.3,39.1,29.37,NE,45,0.0,0.0,73,0.00,CLR,,0.00,WeatherDisplay:10.37,2013-09-06 00:01:00,
2013-09-06 01:06:00,47.1,38.9,29.37,NE,45,0.0,0.0,73,0.00,CLR,,0.00,WeatherDisplay:10.37,2013-09-06 00:06:00,
2013-09-06 01:11:00,47.1,38.9,29.38,East,90,0.0,0.0,73,0.00,CLR,,0.00,WeatherDisplay:10.37,2013-09-06 00:11:00,
2013-09-06 01:16:00,46.9,38.7,29.38,East,90,0.0,0.0,73,0.00,CLR,,0.00,WeatherDisplay:10.37,2013-09-06 00:16:00,
2013-09-06 01:21:00,46.9,39.1,29.38,East,90,0.0,0.0,74,0.00,CLR,,0.00,WeatherDisplay:10.37,2013-09-06 00:21:00,
2013-09-06 01:26:00,46.9,39.1,29.38,East,90,0.0,0.0,74,0.00,CLR,,0.00,WeatherDisplay:10.37,2013-09-06 00:26:00,
2013-09-06 01:31:00,46.9,39.1,29.38,NNE,22,0.0,0.0,74,0.00,CLR,,0.00,WeatherDisplay:10.37,2013-09-06 00:31:00,
2013-09-06 01:36:00,46.9,39.1,29.38,NE,45,1.2,1.2,74,0.00,CLR,,0.00,WeatherDisplay:10.37,2013-09-06 00:36:00,
2013-09-06 01:41:00,46.9,39.1,29.38,NNE,22,0.0,0.0,74,0.00,CLR,,0.00,WeatherDisplay:10.37,2013-09-06 00:41:00,
2013-09-06 01:46:00,46.8,38.9,29.38,ESE,112,0.0,0.0,74,0.00,CLR,,0.00,WeatherDisplay:10.37,2013-09-06 00:46:00,
2013-09-06 01:51:00,46.6,38.7,29.38,East,90,0.0,1.7,74,0.00,CLR,,0.00,WeatherDisplay:10.37,2013-09-06 00:51:00,
2013-09-06 01:56:00,46.6,38.7,29.38,NE,45,0.0,0.0,74,0.00,CLR,,0.00,WeatherDisplay:10.37,2013-09-06 00:56:00,
2013-09-06 02:01:00,46.6,38.7,29.38,NE,45,0.0,0.0,74,0.00,CLR,,0.00,WeatherDisplay:10.37,2013-09-06 01:01:00,
2013-09-06 02:06:00,46.6,38.7,29.38,NNE,22,0.0,0.0,74,0.00,CLR,,0.00,WeatherDisplay:10.37,2013-09-06 01:06:00,
2013-09-06 02:11:00,46.6,39.1,29.38,NNE,22,0.0,0.0,75,0.00,CLR,,0.00,WeatherDisplay:10.37,2013-09-06 01:11:00,
2013-09-06 02:16:00,46.4,38.9,29.38,NNE,22,0.0,0.0,75,0.00,CLR,,0.00,WeatherDisplay:10.37,2013-09-06 01:16:00,
2013-09-06 02:21:00,46.4,38.9,29.38,NNE,22,0.0,0.0,75,0.00,CLR,,0.00,WeatherDisplay:10.37,2013-09-06 01:21:00,
2013-09-06 02:26:00,46.2,38.7,29.38,NNE,22,0.0,0.0,75,0.00,CLR,,0.00,WeatherDisplay:10.37,2013-09-06 01:26:00,
2013-09-06 02:31:00,46.2,38.7,29.38,NNE,22,0.0,0.0,75,0.00,CLR,,0.00,WeatherDisplay:10.37,2013-09-06 01:31:00,
2013-09-06 02:36:00,46.2,38.7,29.38,NNE,22,0.0,0.0,75,0.00,CLR,,0.00,WeatherDisplay:10.37,2013-09-06 01:36:00,
2013-09-06 02:41:00,46.0,38.9,29.38,SE,135,0.0,0.0,76,0.00,CLR,,0.00,WeatherDisplay:10.37,2013-09-06 01:41:00,
2013-09-06 02:46:00,46.0,38.9,29.38,SE,135,0.0,0.0,76,0.00,CLR,,0.00,WeatherDisplay:10.37,2013-09-06 01:46:00,
2013-09-06 02:51:00,46.0,38.9,29.38,NNW,338,0.0,0.0,76,0.00,CLR,,0.00,WeatherDisplay:10.37,2013-09-06 01:51:00,
2013-09-06 02:56:00,46.2,39.1,29.37,NNE,22,0.0,0.0,76,0.00,CLR,,0.00,WeatherDisplay:10.37,2013-09-06 01:56:00,
2013-09-06 03:01:00,46.0,38.9,29.37,NNE,22,0.0,0.0,76,0.00,CLR,,0.00,WeatherDisplay:10.37,2013-09-06 02:01:00,
2013-09-06 03:06:00,46.0,38.9,29.37,NNE,22,0.0,0.0,76,0.00,CLR,,0.00,WeatherDisplay:10.37,2013-09-06 02:06:00,
2013-09-06 03:11:00,45.7,38.5,29.37,ESE,112,0.0,0.8,76,0.00,CLR,,0.00,WeatherDisplay:10.37,2013-09-06 02:11:00,
2013-09-06 03:16:00,45.7,38.5,29.37,ESE,112,0.0,0.0,76,0.00,CLR,,0.00,WeatherDisplay:10.37,2013-09-06 02:16:00,
2013-09-06 03:21:00,45.7,38.9,29.37,ESE,112,0.0,0.0,77,0.00,CLR,,0.00,WeatherDisplay:10.37,2013-09-06 02:21:00,
2013-09-06 03:26:00,45.7,38.9,29.37,NE,45,0.0,0.0,77,0.00,CLR,,0.00,WeatherDisplay:10.37,2013-09-06 02:26:00,
2013-09-06 03:31:00,45.7,38.9,29.37,NE,45,0.0,0.0,77,0.00,CLR,,0.00,WeatherDisplay:10.37,2013-09-06 02:31:00,
2013-09-06 03:36:00,45.9,39.1,29.37,NNE,22,0.0,0.0,77,0.00,CLR,,0.00,WeatherDisplay:10.37,2013-09-06 02:36:00,
2013-09-06 03:41:00,45.9,39.1,29.37,NNE,22,0.0,0.0,77,0.00,CLR,,0.00,WeatherDisplay:10.37,2013-09-06 02:41:00,
2013-09-06 03:46:00,45.7,38.9,29.37,East,90,1.2,1.2,77,0.00,CLR,,0.00,WeatherDisplay:10.37,2013-09-06 02:46:00,
2013-09-06 03:51:00,45.7,38.9,29.37,East,90,0.0,0.0,77,0.00,CLR,,0.00,WeatherDisplay:10.37,2013-09-06 02:51:00,
2013-09-06 03:56:00,45.7,38.9,29.37,East,90,0.0,0.0,77,0.00,CLR,,0.00,WeatherDisplay:10.37,2013-09-06 02:56:00,
2013-09-06 04:01:00,45.7,38.9,29.37,East,90,0.0,0.0,77,0.00,CLR,,0.00,WeatherDisplay:10.37,2013-09-06 03:01:00,
2013-09-06 04:06:00,45.7,39.2,29.37,East,90,0.0,0.0,78,0.00,CLR,,0.00,WeatherDisplay:10.37,2013-09-06 03:06:00,
2013-09-06 04:11:00,45.9,39.4,29.37,East,90,0.0,0.0,78,0.00,CLR,,0.00,WeatherDisplay:10.37,2013-09-06 03:11:00,
2013-09-06 04:16:00,46.0,39.6,29.37,NE,45,0.0,0.0,78,0.00,CLR,,0.00,WeatherDisplay:10.37,2013-09-06 03:16:00,
2013-09-06 04:21:00,46.0,39.6,29.37,ENE,68,0.0,0.0,78,0.00,CLR,,0.00,WeatherDisplay:10.37,2013-09-06 03:21:00,
2013-09-06 04:26:00,46.2,40.1,29.37,ENE,68,0.0,0.0,79,0.00,CLR,,0.00,WeatherDisplay:10.37,2013-09-06 03:26:00,
2013-09-06 04:31:00,46.2,40.1,29.37,ENE,68,0.0,0.0,79,0.00,CLR,,0.00,WeatherDisplay:10.37,2013-09-06 03:31:00,
2013-09-06 04:36:00,46.6,40.4,29.36,NNE,22,1.2,1.3,79,0.00,CLR,,0.00,WeatherDisplay:10.37,2013-09-06 03:36:00,
2013-09-06 04:41:00,46.6,40.7,29.36,NE,45,0.0,0.0,80,0.00,CLR,,0.00,WeatherDisplay:10.37,2013-09-06 03:41:00,
2013-09-06 04:46:00,46.8,40.9,29.36,NNE,22,2.3,2.3,80,0.00,CLR,,0.00,WeatherDisplay:10.37,2013-09-06 03:46:00,
2013-09-06 04:51:00,46.9,41.1,29.36,NNE,22,0.0,0.0,80,0.00,CLR,,0.00,WeatherDisplay:10.37,2013-09-06 03:51:00,
2013-09-06 04:56:00,46.9,41.4,29.36,NE,45,0.0,0.0,81,0.00,CLR,,0.00,WeatherDisplay:10.37,2013-09-06 03:56:00,
2013-09-06 05:01:00,46.9,41.4,29.36,NE,45,0.0,0.0,81,0.00,CLR,,0.00,WeatherDisplay:10.37,2013-09-06 04:01:00,
2013-09-06 05:02:00,46.9,41.4,29.36,NE,45,0.0,0.0,81,0.00,CLR,,0.00,WeatherDisplay:10.37,2013-09-06 04:02:00,
2013-09-06 05:07:00,47.1,41.6,29.36,NE,45,2.7,2.7,81,0.00,CLR,,0.00,WeatherDisplay:10.37,2013-09-06 04:07:00,
2013-09-06 05:12:00,47.1,41.9,29.36,NE,45,2.3,2.5,82,0.00,CLR,,0.00,WeatherDisplay:10.37,2013-09-06 04:12:00,
2013-09-06 05:17:00,47.1,41.9,29.36,North,0,1.6,1.6,82,0.00,CLR,,0.00,WeatherDisplay:10.37,2013-09-06 04:17:00,
2013-09-06 05:22:00,47.3,42.4,29.36,ENE,68,1.2,1.6,83,0.02,RA,,0.02,WeatherDisplay:10.37,2013-09-06 04:22:00,
2013-09-06 05:27:00,47.3,42.4,29.36,NE,45,2.3,3.1,83,0.02,RA,,0.02,WeatherDisplay:10.37,2013-09-06 04:27:00,
2013-09-06 05:32:00,47.5,42.6,29.36,NE,45,2.3,2.3,83,0.02,CLR,,0.02,WeatherDisplay:10.37,2013-09-06 04:32:00,
2013-09-06 05:37:00,47.5,42.9,29.36,NE,45,4.6,4.6,84,0.02,CLR,,0.02,WeatherDisplay:10.37,2013-09-06 04:37:00,
2013-09-06 05:42:00,47.5,42.9,29.36,NNE,22,2.3,2.3,84,0.02,CLR,,0.02,WeatherDisplay:10.37,2013-09-06 04:42:00,
2013-09-06 05:47:00,47.7,43.1,29.36,NNE,22,1.8,0.0,84,0.02,CLR,,0.02,WeatherDisplay:10.37,2013-09-06 04:47:00,
2013-09-06 05:52:00,47.8,43.2,29.36,NNE,22,0.0,0.0,84,0.02,CLR,,0.02,WeatherDisplay:10.37,2013-09-06 04:52:00,
2013-09-06 05:57:00,47.8,43.2,29.36,NE,45,3.5,3.5,84,0.02,CLR,,0.02,WeatherDisplay:10.37,2013-09-06 04:57:00,
2013-09-06 06:02:00,47.8,43.2,29.36,NE,45,1.2,1.6,84,0.02,CLR,,0.02,WeatherDisplay:10.37,2013-09-06 05:02:00,
2013-09-06 06:07:00,48.0,43.4,29.36,ENE,68,1.2,1.2,84,0.02,CLR,,0.02,WeatherDisplay:10.37,2013-09-06 05:07:00,
2013-09-06 06:12:00,48.0,43.4,29.36,NE,45,1.2,1.2,84,0.02,CLR,,0.02,WeatherDisplay:10.37,2013-09-06 05:12:00,
2013-09-06 06:17:00,48.0,43.4,29.36,NE,45,2.3,2.3,84,0.02,CLR,,0.02,WeatherDisplay:10.37,2013-09-06 05:17:00,
2013-09-06 06:22:00,48.0,43.4,29.36,NE,45,0.0,1.3,84,0.00,CLR,,0.02,WeatherDisplay:10.37,2013-09-06 05:22:00,
2013-09-06 06:27:00,48.0,43.4,29.36,ENE,68,1.2,1.2,84,0.00,CLR,,0.02,WeatherDisplay:10.37,2013-09-06 05:27:00,
2013-09-06 06:32:00,48.0,43.7,29.36,ENE,68,1.2,1.2,85,0.00,CLR,,0.02,WeatherDisplay:10.37,2013-09-06 05:32:00,
2013-09-06 06:37:00,48.0,43.7,29.36,NNE,22,2.3,2.3,85,0.00,CLR,,0.02,WeatherDisplay:10.37,2013-09-06 05:37:00,
2013-09-06 06:42:00,48.0,43.7,29.36,NNE,22,1.2,1.2,85,0.00,CLR,,0.02,WeatherDisplay:10.37,2013-09-06 05:42:00,
2013-09-06 06:47:00,48.0,43.7,29.36,NE,45,0.0,0.0,85,0.00,CLR,,0.02,WeatherDisplay:10.37,2013-09-06 05:47:00,
2013-09-06 06:52:00,48.2,43.9,29.36,ENE,68,0.0,0.0,85,0.00,CLR,,0.02,WeatherDisplay:10.37,2013-09-06 05:52:00,
2013-09-06 06:57:00,48.2,43.9,29.37,NNE,22,0.0,2.0,85,0.00,CLR,,0.02,WeatherDisplay:10.37,2013-09-06 05:57:00,
2013-09-06 07:02:00,48.2,43.9,29.37,NNE,22,3.5,3.5,85,0.00,CLR,,0.02,WeatherDisplay:10.37,2013-09-06 06:02:00,
2013-09-06 07:07:00,48.2,43.9,29.37,ENE,68,1.2,1.3,85,0.00,CLR,,0.02,WeatherDisplay:10.37,2013-09-06 06:07:00,
2013-09-06 07:12:00,48.2,43.9,29.37,NE,45,0.0,0.0,85,0.00,CLR,,0.02,WeatherDisplay:10.37,2013-09-06 06:12:00,
2013-09-06 07:17:00,48.2,43.9,29.37,North,0,2.3,2.3,85,0.00,CLR,,0.02,WeatherDisplay:10.37,2013-09-06 06:17:00,
2013-09-06 07:22:00,48.2,43.9,29.37,NE,45,0.0,0.0,85,0.00,CLR,,0.02,WeatherDisplay:10.37,2013-09-06 06:22:00,
2013-09-06 07:27:00,48.4,44.1,29.37,NNE,22,1.2,1.2,85,0.00,CLR,,0.02,WeatherDisplay:10.37,2013-09-06 06:27:00,
2013-09-06 07:32:00,48.4,44.1,29.37,North,0,0.0,0.0,85,0.00,CLR,,0.02,WeatherDisplay:10.37,2013-09-06 06:32:00,
2013-09-06 07:37:00,48.4,44.1,29.37,North,0,1.2,1.2,85,0.00,CLR,,0.02,WeatherDisplay:10.37,2013-09-06 06:37:00,
2013-09-06 07:42:00,48.4,44.1,29.37,NE,45,0.0,0.0,85,0.00,CLR,,0.02,WeatherDisplay:10.37,2013-09-06 06:42:00,
2013-09-06 07:47:00,48.6,44.3,29.37,NE,45,0.0,0.0,85,0.00,CLR,,0.02,WeatherDisplay:10.37,2013-09-06 06:47:00,
2013-09-06 07:52:00,48.6,44.3,29.38,NE,45,0.0,0.0,85,0.00,CLR,,0.02,WeatherDisplay:10.37,2013-09-06 06:52:00,
2013-09-06 07:57:00,48.6,44.3,29.38,NE,45,0.0,0.0,85,0.00,CLR,,0.02,WeatherDisplay:10.37,2013-09-06 06:57:00,
2013-09-06 08:02:00,48.7,44.4,29.38,North,0,0.0,0.0,85,0.00,CLR,,0.02,WeatherDisplay:10.37,2013-09-06 07:02:00,
2013-09-06 08:07:00,48.7,44.4,29.38,ENE,68,0.0,0.0,85,0.00,CLR,,0.02,WeatherDisplay:10.37,2013-09-06 07:07:00,
2013-09-06 08:12:00,48.7,44.4,29.38,NNE,22,2.5,2.5,85,0.00,CLR,,0.02,WeatherDisplay:10.37,2013-09-06 07:12:00,
2013-09-06 08:17:00,48.7,44.4,29.38,NNE,22,1.2,1.2,85,0.00,CLR,,0.02,WeatherDisplay:10.37,2013-09-06 07:17:00,
2013-09-06 08:22:00,48.7,44.4,29.38,NNE,22,1.6,1.6,85,0.00,CLR,,0.02,WeatherDisplay:10.37,2013-09-06 07:22:00,
2013-09-06 08:27:00,48.7,44.4,29.38,NNE,22,2.3,2.3,85,0.00,CLR,,0.02,WeatherDisplay:10.37,2013-09-06 07:27:00,
2013-09-06 08:32:00,48.7,44.4,29.39,NNW,338,0.0,0.0,85,0.00,CLR,,0.02,WeatherDisplay:10.37,2013-09-06 07:32:00,
2013-09-06 08:37:00,48.7,44.4,29.39,NE,45,2.3,2.3,85,0.00,CLR,,0.02,WeatherDisplay:10.37,2013-09-06 07:37:00,
2013-09-06 08:42:00,48.7,44.4,29.39,NNE,22,1.3,1.3,85,0.00,CLR,,0.02,WeatherDisplay:10.37,2013-09-06 07:42:00,
2013-09-06 08:47:00,48.9,44.6,29.39,NE,45,3.5,3.5,85,0.00,CLR,,0.02,WeatherDisplay:10.37,2013-09-06 07:47:00,
2013-09-06 08:52:00,48.9,44.9,29.39,NE,45,0.0,0.0,86,0.00,CLR,,0.02,WeatherDisplay:10.37,2013-09-06 07:52:00,
2013-09-06 08:57:00,48.9,44.9,29.39,East,90,1.2,1.2,86,0.00,CLR,,0.02,WeatherDisplay:10.37,2013-09-06 07:57:00,
2013-09-06 09:02:00,48.9,44.9,29.39,NE,45,2.3,2.4,86,0.00,CLR,,0.02,WeatherDisplay:10.37,2013-09-06 08:02:00,
2013-09-06 09:07:00,48.9,44.9,29.39,NNE,22,3.5,3.5,86,0.00,CLR,,0.02,WeatherDisplay:10.37,2013-09-06 08:07:00,
2013-09-06 09:12:00,49.1,45.1,29.39,North,0,1.6,1.6,86,0.00,CLR,,0.02,WeatherDisplay:10.37,2013-09-06 08:12:00,
2013-09-06 09:17:00,49.1,45.1,29.39,NNE,22,2.3,2.3,86,0.00,CLR,,0.02,WeatherDisplay:10.37,2013-09-06 08:17:00,
2013-09-06 09:22:00,49.1,45.1,29.39,NNE,22,4.6,4.6,86,0.00,CLR,,0.02,WeatherDisplay:10.37,2013-09-06 08:22:00,
2013-09-06 09:27:00,49.3,45.3,29.39,NNE,22,1.2,1.2,86,0.00,CLR,,0.02,WeatherDisplay:10.37,2013-09-06 08:27:00,
2013-09-06 09:32:00,49.3,45.3,29.39,ENE,68,1.2,1.2,86,0.00,CLR,,0.02,WeatherDisplay:10.37,2013-09-06 08:32:00,
2013-09-06 09:37:00,49.3,45.3,29.38,North,0,2.2,2.2,86,0.00,CLR,,0.02,WeatherDisplay:10.37,2013-09-06 08:37:00,
2013-09-06 09:42:00,49.3,45.3,29.38,NNE,22,0.0,0.0,86,0.00,CLR,,0.02,WeatherDisplay:10.37,2013-09-06 08:42:00,
2013-09-06 09:47:00,49.3,45.3,29.38,NNE,22,6.0,6.0,86,0.00,CLR,,0.02,WeatherDisplay:10.37,2013-09-06 08:47:00,
2013-09-06 09:52:00,49.3,45.3,29.38,NE,45,5.8,5.8,86,0.00,CLR,,0.02,WeatherDisplay:10.37,2013-09-06 08:52:00,
2013-09-06 09:57:00,49.5,45.4,29.38,ENE,68,3.5,3.5,86,0.00,CLR,,0.02,WeatherDisplay:10.37,2013-09-06 08:57:00,
2013-09-06 10:02:00,49.5,45.4,29.39,North,0,2.3,2.3,86,0.00,CLR,,0.02,WeatherDisplay:10.37,2013-09-06 09:02:00,
2013-09-06 10:07:00,49.3,45.3,29.39,NNE,22,4.6,4.8,86,0.00,CLR,,0.02,WeatherDisplay:10.37,2013-09-06 09:07:00,
2013-09-06 10:12:00,49.6,45.6,29.39,ENE,68,2.3,2.3,86,0.00,CLR,,0.02,WeatherDisplay:10.37,2013-09-06 09:12:00,
2013-09-06 10:17:00,49.6,45.6,29.39,ENE,68,3.8,3.8,86,0.00,CLR,,0.02,WeatherDisplay:10.37,2013-09-06 09:17:00,
2013-09-06 10:22:00,49.6,45.6,29.39,NNE,22,4.6,4.6,86,0.00,CLR,,0.02,WeatherDisplay:10.37,2013-09-06 09:22:00,
2013-09-06 10:27:00,49.8,45.8,29.39,NE,45,2.7,2.7,86,0.00,CLR,,0.02,WeatherDisplay:10.37,2013-09-06 09:27:00,
2013-09-06 10:32:00,49.6,45.6,29.39,North,0,3.5,3.8,86,0.00,CLR,,0.02,WeatherDisplay:10.37,2013-09-06 09:32:00,
2013-09-06 10:37:00,49.8,45.5,29.39,NNW,338,2.3,2.5,85,0.00,CLR,,0.02,WeatherDisplay:10.37,2013-09-06 09:37:00,
2013-09-06 10:42:00,49.8,45.5,29.40,NW,315,5.8,5.8,85,0.00,CLR,,0.02,WeatherDisplay:10.37,2013-09-06 09:42:00,
2013-09-06 10:47:00,49.8,45.5,29.39,North,0,3.5,3.5,85,0.00,CLR,,0.02,WeatherDisplay:10.37,2013-09-06 09:47:00,
2013-09-06 10:52:00,49.8,45.5,29.40,North,0,2.3,2.3,85,0.00,CLR,,0.02,WeatherDisplay:10.37,2013-09-06 09:52:00,
2013-09-06 10:57:00,50.0,45.7,29.40,East,90,5.8,5.8,85,0.00,CLR,,0.02,WeatherDisplay:10.37,2013-09-06 09:57:00,
2013-09-06 11:02:00,50.0,45.7,29.40,NE,45,3.5,3.5,85,0.00,CLR,,0.02,WeatherDisplay:10.37,2013-09-06 10:02:00,
2013-09-06 11:07:00,50.2,45.8,29.40,NNE,22,7.2,7.2,85,0.00,CLR,,0.02,WeatherDisplay:10.37,2013-09-06 10:07:00,
2013-09-06 11:12:00,50.2,45.8,29.40,NNE,22,3.5,3.5,85,0.00,CLR,,0.02,WeatherDisplay:10.37,2013-09-06 10:12:00,
2013-09-06 11:17:00,50.2,45.8,29.40,East,90,3.5,3.5,85,0.00,CLR,,0.02,WeatherDisplay:10.37,2013-09-06 10:17:00,
2013-09-06 11:22:00,50.2,45.8,29.40,NE,45,4.6,4.8,85,0.00,CLR,,0.02,WeatherDisplay:10.37,2013-09-06 10:22:00,
2013-09-06 11:27:00,50.2,45.8,29.40,North,0,5.6,5.6,85,0.00,CLR,,0.02,WeatherDisplay:10.37,2013-09-06 10:27:00,
2013-09-06 11:32:00,50.4,46.0,29.40,North,0,0.0,0.0,85,0.00,CLR,,0.02,WeatherDisplay:10.37,2013-09-06 10:32:00,
2013-09-06 11:37:00,50.4,46.0,29.40,NNW,338,3.5,3.5,85,0.00,CLR,,0.02,WeatherDisplay:10.37,2013-09-06 10:37:00,
2013-09-06 11:42:00,50.2,45.8,29.40,ENE,68,3.5,3.5,85,0.00,CLR,,0.02,WeatherDisplay:10.37,2013-09-06 10:42:00,
2013-09-06 11:47:00,50.4,45.7,29.40,North,0,3.5,4.6,84,0.00,CLR,,0.02,WeatherDisplay:10.37,2013-09-06 10:47:00,
2013-09-06 11:52:00,50.4,45.7,29.40,NNE,22,3.5,3.8,84,0.00,CLR,,0.02,WeatherDisplay:10.37,2013-09-06 10:52:00,
2013-09-06 11:57:00,50.4,45.7,29.40,North,0,3.4,3.4,84,0.00,CLR,,0.02,WeatherDisplay:10.37,2013-09-06 10:57:00,
2013-09-06 12:02:00,50.4,46.0,29.40,NNW,338,5.8,5.8,85,0.00,CLR,,0.02,WeatherDisplay:10.37,2013-09-06 11:02:00,
2013-09-06 12:07:00,50.4,46.0,29.40,NE,45,3.5,3.5,85,0.00,CLR,,0.02,WeatherDisplay:10.37,2013-09-06 11:07:00,
2013-09-06 12:12:00,50.5,46.2,29.40,NNW,338,4.6,4.6,85,0.00,CLR,,0.02,WeatherDisplay:10.37,2013-09-06 11:12:00,
2013-09-06 12:17:00,50.5,45.9,29.40,NNE,22,5.8,5.9,84,0.00,CLR,,0.02,WeatherDisplay:10.37,2013-09-06 11:17:00,
2013-09-06 12:22:00,50.5,45.9,29.39,NE,45,5.8,5.8,84,0.00,CLR,,0.02,WeatherDisplay:10.37,2013-09-06 11:22:00,
2013-09-06 12:27:00,50.7,46.1,29.39,WNW,292,3.8,3.8,84,0.00,CLR,,0.02,WeatherDisplay:10.37,2013-09-06 11:27:00,
2013-09-06 12:32:00,50.7,46.1,29.40,NNE,22,1.2,1.3,84,0.00,CLR,,0.02,WeatherDisplay:10.37,2013-09-06 11:32:00,
2013-09-06 12:37:00,50.9,46.2,29.40,North,0,4.7,4.7,84,0.00,CLR,,0.02,WeatherDisplay:10.37,2013-09-06 11:37:00,
2013-09-06 12:42:00,51.1,46.4,29.40,ENE,68,2.3,4.3,84,0.00,CLR,,0.02,WeatherDisplay:10.37,2013-09-06 11:42:00,
2013-09-06 12:47:00,51.1,46.1,29.40,NNW,338,5.8,5.8,83,0.00,CLR,,0.02,WeatherDisplay:10.37,2013-09-06 11:47:00,
2013-09-06 12:52:00,51.1,46.1,29.40,NNW,338,4.6,5.1,83,0.00,CLR,,0.02,WeatherDisplay:10.37,2013-09-06 11:52:00,
2013-09-06 12:57:00,51.3,46.3,29.41,NNW,338,9.2,9.2,83,0.00,CLR,,0.02,WeatherDisplay:10.37,2013-09-06 11:57:00,
2013-09-06 13:02:00,51.3,46.3,29.41,NE,45,4.6,4.6,83,0.00,CLR,,0.02,WeatherDisplay:10.37,2013-09-06 12:02:00,
2013-09-06 13:07:00,51.3,46.3,29.39,North,0,12.1,12.1,83,0.00,CLR,,0.02,WeatherDisplay:10.37,2013-09-06 12:07:00,
2013-09-06 13:12:00,51.4,46.4,29.39,NE,45,11.5,11.5,83,0.00,CLR,,0.02,WeatherDisplay:10.37,2013-09-06 12:12:00,
2013-09-06 13:17:00,51.4,46.4,29.39,NNE,22,5.8,5.8,83,0.00,CLR,,0.02,WeatherDisplay:10.37,2013-09-06 12:17:00,
2013-09-06 13:22:00,51.6,46.3,29.39,North,0,16.1,16.1,82,0.00,CLR,,0.02,WeatherDisplay:10.37,2013-09-06 12:22:00,
2013-09-06 13:27:00,51.8,46.5,29.39,NNE,22,8.5,8.5,82,0.00,CLR,,0.02,WeatherDisplay:10.37,2013-09-06 12:27:00,
2013-09-06 13:32:00,52.0,46.7,29.38,NE,45,4.6,4.7,82,0.00,CLR,,0.02,WeatherDisplay:10.37,2013-09-06 12:32:00,
2013-09-06 13:37:00,52.0,46.3,29.39,NE,45,8.3,8.3,81,0.00,CLR,,0.02,WeatherDisplay:10.37,2013-09-06 12:37:00,
2013-09-06 13:42:00,52.3,46.7,29.38,NNW,338,11.5,11.5,81,0.00,CLR,,0.02,WeatherDisplay:10.37,2013-09-06 12:42:00,
2013-09-06 13:47:00,52.3,46.7,29.38,NW,315,3.5,3.5,81,0.00,CLR,,0.02,WeatherDisplay:10.37,2013-09-06 12:47:00,
2013-09-06 13:52:00,52.5,46.9,29.38,NNW,338,13.8,13.8,81,0.00,CLR,,0.02,WeatherDisplay:10.37,2013-09-06 12:52:00,
2013-09-06 13:57:00,52.5,46.5,29.38,NE,45,4.6,9.0,80,0.00,CLR,,0.02,WeatherDisplay:10.37,2013-09-06 12:57:00,
2013-09-06 14:02:00,52.7,46.7,29.39,East,90,6.9,6.9,80,0.00,CLR,,0.02,WeatherDisplay:10.37,2013-09-06 13:02:00,
2013-09-06 14:07:00,52.7,46.7,29.39,North,0,9.8,9.8,80,0.00,CLR,,0.02,WeatherDisplay:10.37,2013-09-06 13:07:00,
2013-09-06 14:12:00,52.9,46.9,29.39,North,0,8.1,9.4,80,0.00,CLR,,0.02,WeatherDisplay:10.37,2013-09-06 13:12:00,
2013-09-06 14:17:00,52.9,46.5,29.39,NNE,22,12.3,12.3,79,0.00,CLR,,0.02,WeatherDisplay:10.37,2013-09-06 13:17:00,
2013-09-06 14:22:00,52.9,46.5,29.39,North,0,4.6,4.6,79,0.00,CLR,,0.02,WeatherDisplay:10.37,2013-09-06 13:22:00,
2013-09-06 14:27:00,52.9,46.5,29.39,NNE,22,5.8,5.8,79,0.00,CLR,,0.02,WeatherDisplay:10.37,2013-09-06 13:27:00,
2013-09-06 14:32:00,52.5,46.2,29.39,North,0,5.8,5.8,79,0.00,CLR,,0.02,WeatherDisplay:10.37,2013-09-06 13:32:00,
2013-09-06 14:37:00,52.5,46.2,29.39,NNE,22,6.0,6.0,79,0.00,CLR,,0.02,WeatherDisplay:10.37,2013-09-06 13:37:00,
2013-09-06 14:42:00,52.3,46.4,29.39,North,0,5.8,5.8,80,0.00,CLR,,0.02,WeatherDisplay:10.37,2013-09-06 13:42:00,
2013-09-06 14:47:00,52.3,46.4,29.39,ENE,68,6.9,7.4,80,0.00,CLR,,0.02,WeatherDisplay:10.37,2013-09-06 13:47:00,
2013-09-06 14:52:00,51.8,46.2,29.39,North,0,5.8,5.8,81,0.00,CLR,,0.02,WeatherDisplay:10.37,2013-09-06 13:52:00,
2013-09-06 14:57:00,51.6,46.3,29.39,NE,45,0.0,0.0,82,0.00,CLR,,0.02,WeatherDisplay:10.37,2013-09-06 13:57:00,
2013-09-06 15:02:00,51.4,46.4,29.39,NE,45,4.6,4.6,83,0.02,RA,,0.04,WeatherDisplay:10.37,2013-09-06 14:02:00,
2013-09-06 15:07:00,51.1,46.1,29.39,ENE,68,3.5,3.6,83,0.02,RA,,0.04,WeatherDisplay:10.37,2013-09-06 14:07:00,
2013-09-06 15:12:00,50.7,46.1,29.39,NE,45,6.9,6.9,84,0.02,CLR,,0.04,WeatherDisplay:10.37,2013-09-06 14:12:00,
2013-09-06 15:17:00,50.7,46.1,29.39,North,0,5.8,5.8,84,0.02,CLR,,0.04,WeatherDisplay:10.37,2013-09-06 14:17:00,
2013-09-06 15:22:00,50.7,46.1,29.38,ENE,68,4.6,4.6,84,0.02,CLR,,0.04,WeatherDisplay:10.37,2013-09-06 14:22:00,
2013-09-06 15:27:00,50.5,46.2,29.38,NNE,22,4.7,4.7,85,0.02,CLR,,0.04,WeatherDisplay:10.37,2013-09-06 14:27:00,
2013-09-06 15:32:00,50.5,46.2,29.38,NE,45,1.2,1.2,85,0.02,CLR,,0.04,WeatherDisplay:10.37,2013-09-06 14:32:00,
2013-09-06 15:37:00,50.5,46.2,29.38,ENE,68,2.5,2.5,85,0.02,CLR,,0.04,WeatherDisplay:10.37,2013-09-06 14:37:00,
2013-09-06 15:42:00,50.5,46.2,29.38,NNW,338,2.3,2.3,85,0.02,CLR,,0.04,WeatherDisplay:10.37,2013-09-06 14:42:00,
2013-09-06 15:47:00,50.5,46.5,29.38,North,0,2.5,2.5,86,0.02,CLR,,0.04,WeatherDisplay:10.37,2013-09-06 14:47:00,
2013-09-06 15:52:00,50.5,46.5,29.38,NE,45,8.1,8.1,86,0.02,CLR,,0.04,WeatherDisplay:10.37,2013-09-06 14:52:00,
2013-09-06 15:57:00,50.5,46.5,29.38,ENE,68,1.2,1.2,86,0.02,CLR,,0.04,WeatherDisplay:10.37,2013-09-06 14:57:00,
2013-09-06 16:02:00,50.5,46.8,29.38,NNE,22,3.5,3.8,87,0.00,CLR,,0.04,WeatherDisplay:10.37,2013-09-06 15:02:00,
2013-09-06 16:07:00,50.5,46.8,29.38,North,0,4.6,4.6,87,0.00,CLR,,0.04,WeatherDisplay:10.37,2013-09-06 15:07:00,
2013-09-06 16:12:00,50.5,46.8,29.38,North,0,4.6,4.6,87,0.00,CLR,,0.04,WeatherDisplay:10.37,2013-09-06 15:12:00,
2013-09-06 16:17:00,50.5,46.8,29.38,NNE,22,9.6,9.6,87,0.00,CLR,,0.04,WeatherDisplay:10.37,2013-09-06 15:17:00,
2013-09-06 16:22:00,50.5,46.8,29.38,ENE,68,9.2,9.5,87,0.00,CLR,,0.04,WeatherDisplay:10.37,2013-09-06 15:22:00,
2013-09-06 16:27:00,50.5,46.8,29.38,North,0,6.5,6.5,87,0.00,CLR,,0.04,WeatherDisplay:10.37,2013-09-06 15:27:00,
2013-09-06 16:32:00,50.5,46.8,29.38,North,0,8.1,8.1,87,0.00,CLR,,0.04,WeatherDisplay:10.37,2013-09-06 15:32:00,
2013-09-06 16:37:00,50.5,46.8,29.37,NE,45,2.5,2.5,87,0.00,CLR,,0.04,WeatherDisplay:10.37,2013-09-06 15:37:00,
2013-09-06 16:42:00,50.5,46.8,29.38,NNE,22,3.5,3.9,87,0.00,CLR,,0.04,WeatherDisplay:10.37,2013-09-06 15:42:00,
2013-09-06 16:47:00,50.5,46.8,29.38,NE,45,9.2,9.2,87,0.00,CLR,,0.04,WeatherDisplay:10.37,2013-09-06 15:47:00,
2013-09-06 16:52:00,50.4,46.9,29.38,NNE,22,8.1,8.1,88,0.00,CLR,,0.04,WeatherDisplay:10.37,2013-09-06 15:52:00,
2013-09-06 16:57:00,50.4,46.9,29.38,NNE,22,8.7,8.7,88,0.00,CLR,,0.04,WeatherDisplay:10.37,2013-09-06 15:57:00,
2013-09-06 17:02:00,50.4,46.9,29.39,NNE,22,5.8,5.8,88,0.00,CLR,,0.04,WeatherDisplay:10.37,2013-09-06 16:02:00,
2013-09-06 17:07:00,50.4,46.9,29.38,ENE,68,3.5,7.7,88,0.00,CLR,,0.04,WeatherDisplay:10.37,2013-09-06 16:07:00,
2013-09-06 17:12:00,50.4,46.9,29.38,NNE,22,8.1,8.1,88,0.02,RA,,0.06,WeatherDisplay:10.37,2013-09-06 16:12:00,
2013-09-06 17:17:00,50.4,46.9,29.37,NE,45,6.5,6.5,88,0.02,RA,,0.06,WeatherDisplay:10.37,2013-09-06 16:17:00,
2013-09-06 17:22:00,50.4,46.9,29.37,NE,45,9.2,9.2,88,0.02,CLR,,0.06,WeatherDisplay:10.37,2013-09-06 16:22:00,
2013-09-06 17:27:00,50.4,46.9,29.38,ENE,68,4.9,4.9,88,0.02,CLR,,0.06,WeatherDisplay:10.37,2013-09-06 16:27:00,
2013-09-06 17:32:00,50.4,46.9,29.37,East,90,8.1,8.1,88,0.02,CLR,,0.06,WeatherDisplay:10.37,2013-09-06 16:32:00,
2013-09-06 17:37:00,50.4,46.9,29.37,ENE,68,6.9,6.9,88,0.02,CLR,,0.06,WeatherDisplay:10.37,2013-09-06 16:37:00,
2013-09-06 17:42:00,50.2,46.8,29.38,NE,45,6.9,6.9,88,0.02,CLR,,0.06,WeatherDisplay:10.37,2013-09-06 16:42:00,
2013-09-06 17:47:00,50.2,46.8,29.38,ENE,68,4.6,4.6,88,0.02,CLR,,0.06,WeatherDisplay:10.37,2013-09-06 16:47:00,
2013-09-06 17:52:00,50.2,46.8,29.37,ENE,68,5.8,5.8,88,0.02,CLR,,0.06,WeatherDisplay:10.37,2013-09-06 16:52:00,
2013-09-06 17:57:00,50.2,46.8,29.37,NNE,22,9.4,9.4,88,0.02,CLR,,0.06,WeatherDisplay:10.37,2013-09-06 16:57:00,
2013-09-06 18:02:00,50.2,46.8,29.37,NNE,22,4.6,4.9,88,0.02,CLR,,0.06,WeatherDisplay:10.37,2013-09-06 17:02:00,
2013-09-06 18:07:00,50.0,46.6,29.37,NNE,22,5.8,6.3,88,0.02,CLR,,0.06,WeatherDisplay:10.37,2013-09-06 17:07:00,
2013-09-06 18:12:00,49.8,46.4,29.37,NE,45,3.5,6.7,88,0.00,CLR,,0.06,WeatherDisplay:10.37,2013-09-06 17:12:00,
2013-09-06 18:17:00,49.8,46.4,29.37,ENE,68,6.9,7.1,88,0.00,CLR,,0.06,WeatherDisplay:10.37,2013-09-06 17:17:00,
2013-09-06 18:22:00,49.8,46.4,29.37,NE,45,15.0,15.0,88,0.00,CLR,,0.06,WeatherDisplay:10.37,2013-09-06 17:22:00,
2013-09-06 18:27:00,49.8,46.4,29.37,NE,45,8.9,8.9,88,0.02,RA,,0.08,WeatherDisplay:10.37,2013-09-06 17:27:00,
2013-09-06 18:32:00,49.6,46.2,29.37,North,0,6.9,7.3,88,0.02,RA,,0.08,WeatherDisplay:10.37,2013-09-06 17:32:00,
2013-09-06 18:37:00,49.6,46.2,29.37,NNE,22,5.6,5.6,88,0.02,CLR,,0.08,WeatherDisplay:10.37,2013-09-06 17:37:00,
2013-09-06 18:42:00,49.6,46.5,29.37,NNE,22,4.6,5.1,89,0.02,CLR,,0.08,WeatherDisplay:10.37,2013-09-06 17:42:00,
2013-09-06 18:47:00,49.6,46.5,29.37,North,0,10.1,10.1,89,0.02,CLR,,0.08,WeatherDisplay:10.37,2013-09-06 17:47:00,
2013-09-06 18:52:00,49.6,46.5,29.37,NE,45,9.2,9.2,89,0.02,CLR,,0.08,WeatherDisplay:10.37,2013-09-06 17:52:00,
2013-09-06 18:57:00,49.5,46.4,29.37,NE,45,9.2,9.4,89,0.02,CLR,,0.08,WeatherDisplay:10.37,2013-09-06 17:57:00,
2013-09-06 19:02:00,49.3,46.2,29.37,NNE,22,16.1,16.1,89,0.04,RA,,0.10,WeatherDisplay:10.37,2013-09-06 18:02:00,
2013-09-06 19:07:00,49.3,46.2,29.37,NE,45,10.9,10.9,89,0.04,RA,,0.10,WeatherDisplay:10.37,2013-09-06 18:07:00,
2013-09-06 19:12:00,49.1,46.3,29.37,NE,45,9.2,9.2,90,0.04,CLR,,0.10,WeatherDisplay:10.37,2013-09-06 18:12:00,
2013-09-06 19:17:00,49.1,46.3,29.36,NE,45,6.9,8.9,90,0.04,CLR,,0.10,WeatherDisplay:10.37,2013-09-06 18:17:00,
2013-09-06 19:22:00,49.1,46.3,29.37,NNE,22,9.2,9.2,90,0.06,RA,,0.12,WeatherDisplay:10.37,2013-09-06 18:22:00,
2013-09-06 19:27:00,49.1,46.3,29.37,NE,45,5.8,5.8,90,0.04,RA,,0.12,WeatherDisplay:10.37,2013-09-06 18:27:00,
2013-09-06 19:32:00,48.9,46.1,29.37,NE,45,12.7,12.7,90,0.04,CLR,,0.12,WeatherDisplay:10.37,2013-09-06 18:32:00,
2013-09-06 19:37:00,48.9,46.1,29.38,NNE,22,8.1,8.1,90,0.04,CLR,,0.12,WeatherDisplay:10.37,2013-09-06 18:37:00,
2013-09-06 19:42:00,48.9,46.1,29.38,East,90,3.5,3.5,90,0.06,RA,,0.14,WeatherDisplay:10.37,2013-09-06 18:42:00,
2013-09-06 19:47:00,48.7,45.9,29.38,ENE,68,9.2,9.2,90,0.08,RA,,0.16,WeatherDisplay:10.37,2013-09-06 18:47:00,
2013-09-06 19:52:00,48.7,45.9,29.38,NNE,22,9.2,9.2,90,0.08,RA,,0.16,WeatherDisplay:10.37,2013-09-06 18:52:00,
2013-09-06 19:57:00,48.6,45.8,29.38,NNW,338,9.6,9.6,90,0.08,,,0.16,WeatherDisplay:10.37,2013-09-06 18:57:00,
2013-09-06 20:02:00,48.6,45.8,29.38,North,0,11.5,11.5,90,0.08,RA,,0.18,WeatherDisplay:10.37,2013-09-06 19:02:00,
2013-09-06 20:07:00,48.4,45.9,29.37,NNW,338,7.6,7.6,91,0.08,RA,,0.18,WeatherDisplay:10.37,2013-09-06 19:07:00,
2013-09-06 20:12:00,48.2,45.7,29.38,NE,45,3.5,3.6,91,0.10,RA,,0.20,WeatherDisplay:10.37,2013-09-06 19:12:00,
2013-09-06 20:17:00,48.0,45.2,29.38,North,0,11.5,11.8,90,0.10,RA,,0.20,WeatherDisplay:10.37,2013-09-06 19:17:00,
2013-09-06 20:22:00,48.0,45.2,29.38,North,0,9.2,11.5,90,0.08,CLR,,0.20,WeatherDisplay:10.37,2013-09-06 19:22:00,
2013-09-06 20:27:00,48.0,45.2,29.39,NNW,338,11.5,11.5,90,0.12,RA,,0.24,WeatherDisplay:10.37,2013-09-06 19:27:00,
2013-09-06 20:32:00,47.7,44.9,29.39,West,270,6.9,6.9,90,0.12,RA,,0.24,WeatherDisplay:10.37,2013-09-06 19:32:00,
2013-09-06 20:37:00,47.5,45.0,29.39,NNE,22,9.2,9.3,91,0.12,,,0.24,WeatherDisplay:10.37,2013-09-06 19:37:00,
2013-09-06 20:42:00,47.5,45.0,29.39,NNE,22,8.1,8.1,91,0.10,CLR,,0.24,WeatherDisplay:10.37,2013-09-06 19:42:00,
2013-09-06 20:47:00,47.3,44.8,29.38,NNW,338,9.2,9.2,91,0.08,CLR,,0.24,WeatherDisplay:10.37,2013-09-06 19:47:00,
2013-09-06 20:52:00,47.3,44.8,29.38,NNE,22,3.5,7.7,91,0.08,CLR,,0.24,WeatherDisplay:10.37,2013-09-06 19:52:00,
2013-09-06 20:57:00,47.1,44.6,29.39,ENE,68,4.7,4.7,91,0.10,RA,,0.26,WeatherDisplay:10.37,2013-09-06 19:57:00,
2013-09-06 21:02:00,46.9,44.4,29.39,ENE,68,10.4,10.4,91,0.08,RA,,0.26,WeatherDisplay:10.37,2013-09-06 20:02:00,
2013-09-06 21:07:00,46.9,44.4,29.39,NE,45,11.5,11.5,91,0.08,CLR,,0.26,WeatherDisplay:10.37,2013-09-06 20:07:00,
2013-09-06 21:12:00,46.8,44.3,29.39,North,0,5.8,5.8,91,0.08,RA,,0.29,WeatherDisplay:10.37,2013-09-06 20:12:00,
2013-09-06 21:17:00,46.8,44.3,29.41,NE,45,6.9,6.9,91,0.08,RA,,0.29,WeatherDisplay:10.37,2013-09-06 20:17:00,
2013-09-06 21:22:00,46.6,44.1,29.41,North,0,9.2,9.2,91,0.08,CLR,,0.29,WeatherDisplay:10.37,2013-09-06 20:22:00,
2013-09-06 21:27:00,46.2,43.7,29.41,NE,45,16.1,16.1,91,0.04,CLR,,0.29,WeatherDisplay:10.37,2013-09-06 20:27:00,
2013-09-06 21:32:00,46.2,43.7,29.41,NW,315,4.6,4.7,91,0.04,CLR,,0.29,WeatherDisplay:10.37,2013-09-06 20:32:00,
2013-09-06 21:37:00,46.0,43.6,29.41,North,0,5.8,6.1,91,0.04,CLR,,0.29,WeatherDisplay:10.37,2013-09-06 20:37:00,
2013-09-06 21:42:00,46.0,43.6,29.41,North,0,10.4,10.4,91,0.06,RA,,0.31,WeatherDisplay:10.37,2013-09-06 20:42:00,
2013-09-06 21:47:00,45.7,42.9,29.41,North,0,7.2,7.2,90,0.06,RA,,0.31,WeatherDisplay:10.37,2013-09-06 20:47:00,
2013-09-06 21:52:00,45.5,42.7,29.41,North,0,9.2,9.2,90,0.08,RA,,0.33,WeatherDisplay:10.37,2013-09-06 20:52:00,
2013-09-06 21:57:00,45.5,42.7,29.41,NNE,22,3.6,3.6,90,0.06,RA,,0.33,WeatherDisplay:10.37,2013-09-06 20:57:00,
2013-09-06 22:02:00,45.3,42.6,29.41,NNW,338,4.6,4.6,90,0.06,CLR,,0.33,WeatherDisplay:10.37,2013-09-06 21:02:00,
2013-09-06 22:07:00,45.3,42.8,29.41,ESE,112,2.3,2.8,91,0.06,CLR,,0.33,WeatherDisplay:10.37,2013-09-06 21:07:00,
2013-09-06 22:12:00,45.3,42.8,29.41,NNW,338,10.4,10.4,91,0.04,CLR,,0.33,WeatherDisplay:10.37,2013-09-06 21:12:00,
2013-09-06 22:17:00,45.3,42.8,29.40,NNE,22,2.9,2.9,91,0.08,RA,,0.37,WeatherDisplay:10.37,2013-09-06 21:17:00,
2013-09-06 22:22:00,45.1,42.7,29.40,ENE,68,6.9,6.9,91,0.08,RA,,0.37,WeatherDisplay:10.37,2013-09-06 21:22:00,
2013-09-06 22:27:00,45.1,42.7,29.40,NNW,338,3.5,5.3,91,0.08,,,0.39,WeatherDisplay:10.37,2013-09-06 21:27:00,
2013-09-06 22:32:00,45.1,42.7,29.40,NNW,338,5.8,8.5,91,0.10,RA,,0.39,WeatherDisplay:10.37,2013-09-06 21:32:00,
2013-09-06 22:37:00,45.1,42.7,29.40,North,0,2.3,4.8,91,0.12,RA,,0.41,WeatherDisplay:10.37,2013-09-06 21:37:00,
2013-09-06 22:43:00,45.1,42.7,29.40,NW,315,3.5,3.5,91,0.12,RA,,0.43,WeatherDisplay:10.37,2013-09-06 21:43:00,
2013-09-06 22:48:00,45.3,42.8,29.40,NW,315,3.5,3.5,91,0.12,RA,,0.43,WeatherDisplay:10.37,2013-09-06 21:48:00,
2013-09-06 22:53:00,45.3,42.8,29.40,North,0,1.2,1.2,91,0.10,CLR,,0.43,WeatherDisplay:10.37,2013-09-06 21:53:00,
2013-09-06 23:03:00,45.3,42.8,29.40,North,0,3.5,3.9,91,0.10,CLR,,0.43,WeatherDisplay:10.37,2013-09-06 22:03:00,
2013-09-06 23:09:00,45.3,42.8,29.39,NNW,338,5.8,5.8,91,0.12,RA,,0.45,WeatherDisplay:10.37,2013-09-06 22:09:00,
2013-09-06 23:14:00,45.5,43.0,29.39,West,270,4.6,4.6,91,0.12,RA,,0.45,WeatherDisplay:10.37,2013-09-06 22:14:00,
2013-09-06 23:19:00,45.5,43.0,29.39,NNW,338,3.5,3.5,91,0.08,,,0.45,WeatherDisplay:10.37,2013-09-06 22:19:00,
2013-09-06 23:24:00,45.5,43.0,29.38,North,0,3.5,3.5,91,0.08,CLR,,0.45,WeatherDisplay:10.37,2013-09-06 22:24:00,
2013-09-06 23:29:00,45.5,43.0,29.38,NNW,338,2.3,2.3,91,0.06,CLR,,0.45,WeatherDisplay:10.37,2013-09-06 22:29:00,
2013-09-06 23:34:00,45.5,43.0,29.38,NNE,22,2.3,2.3,91,0.06,CLR,,0.45,WeatherDisplay:10.37,2013-09-06 22:34:00,
2013-09-06 23:39:00,45.5,43.0,29.37,North,0,3.5,3.5,91,0.04,CLR,,0.45,WeatherDisplay:10.37,2013-09-06 22:39:00,
2013-09-06 23:44:00,45.5,43.0,29.37,NW,315,4.6,4.6,91,0.02,CLR,,0.45,WeatherDisplay:10.37,2013-09-06 22:44:00,
2013-09-06 23:49:00,45.5,43.0,29.36,NNW,338,2.3,2.3,91,0.02,CLR,,0.45,WeatherDisplay:10.37,2013-09-06 22:49:00,
2013-09-06 23:54:00,45.7,43.2,29.37,NNW,338,3.5,3.5,91,0.02,CLR,,0.45,WeatherDisplay:10.37,2013-09-06 22:54:00,
2013-09-06 23:59:00,45.5,43.0,29.36,NNE,22,3.5,3.5,91,0.02,CLR,,0.45,WeatherDisplay:10.37,2013-09-06 22:59:00,